Haviland, Ohio
Current Conditions -  °F | °C
As of 4:53 AM on Sunday 21 Dec 2014 (Local Time) from KDFI Reporting Station
Haze Haze  
Wind Chill: 27°   Ceiling: 6000
Heat Index: 27°   Visibility: 4mi
Dew Point: 24°   Wind: 0mph
Humidity: 89%   Direction: NA
Pressure: 30.3"   Gusts: NA
Location:  41.02°N, 84.58°W
Report Text: KDFI 210953Z AUTO 00000KT 4SM BR OVC060 M03/M04 A3030 RMK AO2 SLP268 T10281044 TSNO
Loading
Personal Weather Stations






























Interactive Weather Map New forecast layout! Learn more

10-Day Weather Forecast

Advertisements
Track Severe Weather on mobile